createdAt,value
2023-03-18T00:04:18.587Z,11.74
2023-03-18T00:09:22.907Z,11.68
2023-03-18T00:14:28.036Z,11.66
2023-03-18T00:19:32.614Z,11.65
2023-03-18T00:24:35.890Z,11.61
2023-03-18T00:29:41.670Z,11.57
2023-03-18T00:34:45.291Z,11.60
2023-03-18T00:39:50.805Z,11.56
2023-03-18T00:44:55.361Z,11.54
2023-03-18T00:49:58.632Z,11.49
2023-03-18T00:55:02.332Z,11.49
2023-03-18T01:00:08.444Z,11.46
2023-03-18T01:05:13.096Z,11.47
2023-03-18T01:10:18.235Z,11.46
2023-03-18T01:15:23.527Z,11.46
2023-03-18T01:20:26.836Z,11.41
2023-03-18T01:25:32.900Z,11.38
2023-03-18T01:30:38.333Z,11.38
2023-03-18T01:35:42.964Z,11.38
2023-03-18T01:40:46.078Z,11.40
2023-03-18T01:45:57.430Z,11.37
2023-03-18T01:51:04.617Z,11.37
2023-03-18T01:56:10.066Z,11.32
2023-03-18T02:01:20.166Z,11.29
2023-03-18T02:06:25.801Z,11.32
2023-03-18T02:11:40.340Z,11.32
2023-03-18T02:16:52.945Z,11.32
2023-03-18T02:22:06.450Z,11.28
2023-03-18T02:27:20.295Z,11.31
2023-03-18T02:32:29.423Z,11.28
2023-03-18T02:37:32.568Z,11.33
2023-03-18T02:42:37.974Z,11.38
2023-03-18T02:47:43.782Z,11.34
2023-03-18T02:52:47.464Z,11.32
2023-03-18T02:57:52.077Z,11.31
2023-03-18T03:02:56.389Z,11.29
2023-03-18T03:07:59.681Z,11.24
2023-03-18T03:13:06.379Z,11.17
2023-03-18T03:18:10.483Z,11.02
2023-03-18T03:23:16.918Z,10.82
2023-03-18T03:28:21.835Z,10.80
2023-03-18T03:33:25.676Z,10.84
2023-03-18T03:38:29.484Z,10.94
2023-03-18T03:43:34.148Z,10.97
2023-03-18T03:48:37.305Z,10.82
2023-03-18T03:53:43.929Z,10.76
2023-03-18T03:58:49.049Z,10.70
2023-03-18T04:03:53.685Z,10.67
2023-03-18T04:08:57.373Z,10.68
2023-03-18T04:14:03.041Z,10.65
2023-03-18T04:19:07.119Z,10.60
2023-03-18T04:24:11.785Z,10.58
2023-03-18T04:29:21.774Z,10.51
2023-03-18T04:34:25.470Z,10.55
2023-03-18T04:39:28.802Z,10.53
2023-03-18T04:44:33.407Z,10.51
2023-03-18T04:49:37.806Z,10.50
2023-03-18T04:54:42.938Z,10.52
2023-03-18T04:59:47.846Z,10.51
2023-03-18T05:04:51.844Z,10.48
2023-03-18T05:09:55.842Z,10.49
2023-03-18T05:15:00.549Z,10.49
2023-03-18T05:20:04.489Z,10.49
2023-03-18T05:25:11.249Z,10.63
2023-03-18T05:30:17.507Z,10.67
2023-03-18T05:35:26.460Z,10.73
2023-03-18T05:40:30.586Z,10.74
2023-03-18T05:45:58.033Z,10.74
2023-03-18T05:51:29.321Z,10.67
2023-03-18T05:56:33.143Z,10.61
2023-03-18T06:01:42.344Z,10.51
2023-03-18T06:06:46.105Z,10.48
2023-03-18T06:11:52.213Z,10.41
2023-03-18T06:16:57.088Z,10.32
2023-03-18T06:22:00.491Z,10.22
2023-03-18T06:27:03.946Z,10.07
2023-03-18T06:32:10.241Z,10.06
2023-03-18T06:37:15.288Z,10.02
2023-03-18T06:42:19.196Z,10.03
2023-03-18T06:47:44.186Z,10.01
2023-03-18T06:52:48.343Z,10.04
2023-03-18T06:57:57.628Z,10.05
2023-03-18T07:03:08.548Z,10.08
2023-03-18T07:08:13.931Z,10.06
2023-03-18T07:13:17.415Z,10.16
2023-03-18T07:18:21.938Z,10.14
2023-03-18T07:23:25.191Z,10.18
2023-03-18T07:28:28.817Z,10.23
2023-03-18T07:33:34.483Z,10.31
2023-03-18T07:38:37.686Z,10.37
2023-03-18T07:43:41.416Z,10.44
2023-03-18T07:48:46.678Z,10.58
2023-03-18T07:53:52.299Z,10.58
2023-03-18T07:58:55.378Z,10.73
2023-03-18T08:04:00.000Z,10.80
2023-03-18T08:09:03.776Z,10.85
2023-03-18T08:14:07.345Z,11.00
2023-03-18T08:19:12.214Z,11.32
2023-03-18T08:24:15.500Z,11.59
2023-03-18T08:29:18.765Z,11.73
2023-03-18T08:34:23.574Z,11.85
2023-03-18T08:39:27.124Z,11.92
2023-03-18T08:44:31.022Z,11.81
2023-03-18T08:49:37.772Z,11.75
2023-03-18T08:54:40.884Z,11.73
2023-03-18T08:59:43.998Z,11.71
2023-03-18T09:04:50.067Z,11.81
2023-03-18T09:09:54.205Z,11.94
2023-03-18T09:14:57.618Z,11.97
2023-03-18T09:20:03.090Z,12.13
2023-03-18T09:25:07.089Z,12.41
2023-03-18T09:30:12.080Z,12.43
2023-03-18T09:35:17.057Z,12.39
2023-03-18T09:40:23.916Z,12.58
2023-03-18T09:45:32.384Z,12.79
2023-03-18T09:50:43.958Z,12.98
2023-03-18T09:55:53.146Z,13.39
2023-03-18T10:01:01.928Z,13.83
2023-03-18T10:06:17.128Z,14.58
2023-03-18T10:11:27.884Z,15.53
2023-03-18T10:16:38.670Z,16.34
2023-03-18T10:21:53.188Z,16.63
2023-03-18T10:27:08.986Z,16.74
2023-03-18T10:32:24.610Z,17.03
2023-03-18T10:37:42.503Z,17.44
2023-03-18T10:42:46.397Z,17.28
2023-03-18T10:47:56.598Z,17.19
2023-03-18T10:53:08.717Z,17.24
2023-03-18T10:58:17.338Z,17.12
2023-03-18T11:03:25.687Z,16.78
2023-03-18T11:08:34.581Z,16.69
2023-03-18T11:13:37.835Z,16.38
2023-03-18T11:18:53.657Z,16.60
2023-03-18T11:24:21.027Z,16.66
2023-03-18T11:29:29.195Z,16.50
2023-03-18T11:34:35.051Z,16.54
2023-03-18T11:39:41.897Z,16.74
2023-03-18T11:44:45.038Z,16.91
2023-03-18T11:49:48.022Z,17.59
2023-03-18T11:55:26.270Z,17.90
2023-03-18T12:00:34.694Z,17.62
2023-03-18T12:05:54.876Z,16.93
2023-03-18T12:11:07.715Z,16.56
2023-03-18T12:16:22.147Z,16.37
2023-03-18T12:21:44.701Z,16.24
2023-03-18T12:26:56.662Z,16.27
2023-03-18T12:32:09.385Z,16.44
2023-03-18T12:37:32.245Z,16.49
2023-03-18T12:42:54.693Z,16.36
2023-03-18T12:48:02.475Z,16.54
2023-03-18T12:53:14.831Z,17.47
2023-03-18T12:58:24.419Z,17.89
2023-03-18T13:03:34.336Z,17.97
2023-03-18T13:08:54.459Z,17.76
2023-03-18T13:14:04.843Z,17.63
2023-03-18T13:19:10.801Z,17.59
2023-03-18T13:24:42.591Z,17.59
2023-03-18T13:29:55.778Z,17.66
2023-03-18T13:35:23.213Z,17.70
2023-03-18T13:40:46.447Z,17.46
2023-03-18T13:45:56.474Z,17.61
2023-03-18T13:51:00.859Z,17.68
2023-03-18T13:56:06.423Z,17.70
2023-03-18T14:01:33.114Z,17.81
2023-03-18T14:06:56.789Z,17.88
2023-03-18T14:12:05.496Z,17.68
2023-03-18T14:17:20.227Z,17.49
2023-03-18T14:22:29.362Z,17.48
2023-03-18T14:27:32.620Z,17.68
2023-03-18T14:32:40.901Z,17.68
2023-03-18T14:38:02.713Z,17.92
2023-03-18T14:43:11.660Z,17.93
2023-03-18T14:48:22.664Z,18.19
2023-03-18T14:53:30.622Z,18.30
2023-03-18T14:58:35.892Z,18.07
2023-03-18T15:03:44.847Z,18.08
2023-03-18T15:08:59.805Z,18.07
2023-03-18T15:14:03.422Z,18.03
2023-03-18T15:19:12.656Z,18.06
2023-03-18T15:24:19.761Z,17.99
2023-03-18T15:29:29.906Z,18.08
2023-03-18T15:34:35.780Z,18.10
2023-03-18T15:39:41.042Z,17.88
2023-03-18T15:44:46.568Z,17.71
2023-03-18T15:49:55.685Z,17.35
2023-03-18T15:54:58.871Z,17.44
2023-03-18T16:00:02.535Z,17.89
2023-03-18T16:05:20.696Z,18.07
2023-03-18T16:10:26.540Z,17.90
2023-03-18T16:15:32.020Z,17.85
2023-03-18T16:20:37.022Z,17.61
2023-03-18T16:25:41.826Z,17.35
2023-03-18T16:30:45.408Z,17.04
2023-03-18T16:35:55.622Z,16.91
2023-03-18T16:40:59.333Z,16.83
2023-03-18T16:46:05.843Z,16.75
2023-03-18T16:51:10.828Z,16.65
2023-03-18T16:56:17.894Z,16.53
2023-03-18T17:01:21.532Z,16.41
2023-03-18T17:06:26.510Z,16.20
2023-03-18T17:11:29.527Z,16.06
2023-03-18T17:16:32.791Z,15.89
2023-03-18T17:21:38.107Z,15.71
2023-03-18T17:26:43.250Z,15.60
2023-03-18T17:31:46.684Z,15.62
2023-03-18T17:36:53.898Z,15.54
2023-03-18T17:41:57.221Z,15.41
2023-03-18T17:47:01.245Z,15.35
2023-03-18T17:52:06.276Z,15.29
2023-03-18T17:57:14.464Z,15.20
2023-03-18T18:02:20.573Z,15.10
2023-03-18T18:07:25.518Z,15.01
2023-03-18T18:12:28.774Z,14.99
2023-03-18T18:17:32.546Z,14.94
2023-03-18T18:22:37.833Z,14.92
2023-03-18T18:27:41.969Z,14.87
2023-03-18T18:32:45.449Z,14.75
2023-03-18T18:37:51.189Z,14.78
2023-03-18T18:42:54.634Z,14.68
2023-03-18T18:47:58.526Z,14.59
2023-03-18T18:53:03.241Z,14.45
2023-03-18T18:58:06.752Z,14.42
2023-03-18T19:03:14.796Z,14.35
2023-03-18T19:08:25.226Z,14.17
2023-03-18T19:13:30.203Z,13.76
2023-03-18T19:18:38.173Z,13.45
2023-03-18T19:23:43.530Z,13.21
2023-03-18T19:29:01.556Z,12.87
2023-03-18T19:34:14.957Z,12.66
2023-03-18T19:39:21.185Z,12.58
2023-03-18T19:44:26.262Z,12.52
2023-03-18T19:49:33.142Z,12.44
2023-03-18T19:54:55.198Z,12.32
2023-03-18T19:59:59.623Z,12.22
2023-03-18T20:05:15.639Z,12.14
2023-03-18T20:10:21.123Z,11.88
2023-03-18T20:15:27.023Z,11.90
2023-03-18T20:20:34.737Z,11.74
2023-03-18T20:25:42.966Z,11.63
2023-03-18T20:30:47.277Z,11.74
2023-03-18T20:35:53.630Z,11.77
2023-03-18T20:40:58.516Z,11.70
2023-03-18T20:46:02.725Z,11.64
2023-03-18T20:51:11.278Z,11.73
2023-03-18T20:56:16.538Z,11.70
2023-03-18T21:01:20.066Z,11.72
2023-03-18T21:06:23.160Z,11.72
2023-03-18T21:11:33.046Z,11.74
2023-03-18T21:16:37.966Z,11.71
2023-03-18T21:21:41.602Z,11.64
2023-03-18T21:27:03.108Z,11.70
2023-03-18T21:32:07.553Z,11.70
2023-03-18T21:37:16.161Z,11.61
2023-03-18T21:42:24.598Z,11.60
2023-03-18T21:47:28.436Z,11.57
2023-03-18T21:52:33.496Z,11.67
2023-03-18T21:57:38.278Z,11.67
2023-03-18T22:02:44.689Z,11.66
2023-03-18T22:07:47.871Z,11.66
2023-03-18T22:12:53.748Z,11.67
2023-03-18T22:17:57.066Z,11.65
2023-03-18T22:23:00.633Z,11.65
2023-03-18T22:28:07.157Z,11.56
2023-03-18T22:33:18.971Z,11.53
2023-03-18T22:38:24.115Z,11.51
2023-03-18T22:43:32.266Z,11.53
2023-03-18T22:48:35.705Z,11.51
2023-03-18T22:53:41.204Z,11.55
2023-03-18T22:58:46.493Z,11.54
2023-03-18T23:03:52.559Z,11.53
2023-03-18T23:08:55.897Z,11.49
2023-03-18T23:14:03.326Z,11.51
2023-03-18T23:19:06.733Z,11.50
2023-03-18T23:24:13.323Z,11.46
2023-03-18T23:29:20.112Z,11.42
2023-03-18T23:34:23.466Z,11.40
2023-03-18T23:39:26.534Z,11.36
2023-03-18T23:44:31.112Z,11.28
2023-03-18T23:49:34.554Z,11.19
2023-03-18T23:54:39.294Z,11.14
2023-03-18T23:59:43.946Z,11.04
